Time,TemperatureF,DewpointF,PressureIn,WindDirection,WindDirectionDegrees,WindSpeedMPH,WindSpeedGustMPH,Humidity,HourlyPrecipIn,Conditions,Clouds,dailyrainin,SoftwareType,DateUTC
2013-02-24 00:03:00,32.8,29.4,29.97,NW,324,2.0,2.0,87,0.00,,SKC,0.00,VWS V14.01,2013-02-24 06:03:00,
2013-02-24 00:09:00,32.7,29.3,29.97,NW,324,0.0,2.0,87,0.00,,SKC,0.00,VWS V14.01,2013-02-24 06:09:00,
2013-02-24 00:14:00,32.6,29.2,29.98,NW,323,0.0,2.0,87,0.00,,SKC,0.00,VWS V14.01,2013-02-24 06:14:00,
2013-02-24 00:19:00,32.4,29.0,29.98,NW,324,0.0,2.0,87,0.00,,SKC,0.00,VWS V14.01,2013-02-24 06:19:00,
2013-02-24 00:24:00,32.3,28.9,29.98,NW,324,2.0,2.0,87,0.00,,SKC,0.00,VWS V14.01,2013-02-24 06:24:00,
2013-02-24 00:29:00,32.3,28.9,29.98,NW,324,0.0,2.0,87,0.00,,SKC,0.00,VWS V14.01,2013-02-24 06:29:00,
2013-02-24 00:34:00,32.1,29.0,29.98,NW,323,0.0,0.0,88,0.00,,SKC,0.00,VWS V14.01,2013-02-24 06:34:00,
2013-02-24 00:39:00,32.0,28.9,29.98,NW,323,0.0,0.0,88,0.00,,SKC,0.00,VWS V14.01,2013-02-24 06:39:00,
2013-02-24 00:44:00,31.9,28.8,29.98,NW,323,0.0,0.0,88,0.00,,SKC,0.00,VWS V14.01,2013-02-24 06:44:00,
2013-02-24 00:49:00,31.7,28.6,29.98,NW,324,0.0,0.0,88,0.00,,SKC,0.00,VWS V14.01,2013-02-24 06:49:00,
2013-02-24 00:54:00,31.5,28.4,29.98,NW,324,0.0,0.0,88,0.00,,SKC,0.00,VWS V14.01,2013-02-24 06:54:00,
2013-02-24 00:59:00,31.5,28.4,29.99,NW,324,0.0,1.0,88,0.00,,SKC,0.00,VWS V14.01,2013-02-24 06:59:00,
2013-02-24 01:04:00,31.6,28.7,29.99,NW,323,0.0,0.0,89,0.00,,SKC,0.00,VWS V14.01,2013-02-24 07:04:00,
2013-02-24 01:09:00,31.6,28.7,29.99,NW,324,0.0,0.0,89,0.00,,SKC,0.00,VWS V14.01,2013-02-24 07:09:00,
2013-02-24 01:14:00,31.6,28.7,29.99,NW,324,0.0,0.0,89,0.00,,SKC,0.00,VWS V14.01,2013-02-24 07:14:00,
2013-02-24 01:19:00,31.5,28.6,29.99,NW,324,0.0,0.0,89,0.00,,SKC,0.00,VWS V14.01,2013-02-24 07:19:00,
2013-02-24 01:25:00,31.5,28.6,29.99,NW,324,0.0,0.0,89,0.00,,SKC,0.00,VWS V14.01,2013-02-24 07:25:00,
2013-02-24 01:30:00,31.5,28.6,29.99,NW,324,0.0,0.0,89,0.00,,SKC,0.00,VWS V14.01,2013-02-24 07:30:00,
2013-02-24 01:35:00,31.4,28.5,29.99,NW,323,0.0,0.0,89,0.00,,SKC,0.00,VWS V14.01,2013-02-24 07:35:00,
2013-02-24 01:40:00,31.3,28.4,29.99,NW,323,0.0,0.0,89,0.00,,SKC,0.00,VWS V14.01,2013-02-24 07:40:00,
2013-02-24 01:45:00,31.2,28.3,29.99,NW,324,0.0,0.0,89,0.00,,SKC,0.00,VWS V14.01,2013-02-24 07:45:00,
2013-02-24 01:50:00,31.1,28.2,29.99,NW,324,0.0,0.0,89,0.00,,SKC,0.00,VWS V14.01,2013-02-24 07:50:00,
2013-02-24 01:55:00,31.0,28.1,29.99,NW,324,0.0,0.0,89,0.00,,SKC,0.00,VWS V14.01,2013-02-24 07:55:00,
2013-02-24 02:00:00,30.9,28.0,29.99,NW,324,0.0,0.0,89,0.00,,SKC,0.00,VWS V14.01,2013-02-24 08:00:00,
2013-02-24 02:05:00,30.7,27.9,29.99,NW,324,0.0,0.0,89,0.00,,SKC,0.00,VWS V14.01,2013-02-24 08:05:00,
2013-02-24 02:10:00,30.7,28.1,29.99,NW,323,0.0,0.0,90,0.00,,SKC,0.00,VWS V14.01,2013-02-24 08:10:00,
2013-02-24 02:15:00,30.8,28.2,29.99,NW,324,0.0,0.0,90,0.00,,SKC,0.00,VWS V14.01,2013-02-24 08:15:00,
2013-02-24 02:20:00,30.7,28.1,29.98,NW,323,0.0,0.0,90,0.00,,SKC,0.00,VWS V14.01,2013-02-24 08:20:00,
2013-02-24 02:26:00,30.7,28.1,29.98,NW,324,0.0,0.0,90,0.00,,SKC,0.00,VWS V14.01,2013-02-24 08:26:00,
2013-02-24 02:31:00,30.6,28.0,29.99,NW,323,0.0,0.0,90,0.00,,SKC,0.00,VWS V14.01,2013-02-24 08:31:00,
2013-02-24 02:36:00,30.5,27.9,29.99,NW,324,0.0,0.0,90,0.00,,SKC,0.00,VWS V14.01,2013-02-24 08:36:00,
2013-02-24 02:41:00,30.3,27.7,29.99,NW,323,0.0,0.0,90,0.00,,SKC,0.00,VWS V14.01,2013-02-24 08:41:00,
2013-02-24 02:46:00,30.3,27.7,29.98,NW,323,0.0,0.0,90,0.00,,SKC,0.00,VWS V14.01,2013-02-24 08:46:00,
2013-02-24 02:51:00,30.4,27.8,29.98,NW,324,0.0,0.0,90,0.00,,SKC,0.00,VWS V14.01,2013-02-24 08:51:00,
2013-02-24 02:56:00,30.4,27.8,29.99,NW,323,0.0,0.0,90,0.00,,SKC,0.00,VWS V14.01,2013-02-24 08:56:00,
2013-02-24 03:01:00,30.3,27.7,29.99,NW,324,0.0,0.0,90,0.00,,SKC,0.00,VWS V14.01,2013-02-24 09:01:00,
2013-02-24 03:06:00,30.3,27.7,29.99,NW,324,0.0,0.0,90,0.00,,SKC,0.00,VWS V14.01,2013-02-24 09:06:00,
2013-02-24 03:11:00,30.2,27.6,29.98,NW,323,0.0,0.0,90,0.00,,SKC,0.00,VWS V14.01,2013-02-24 09:11:00,
2013-02-24 03:16:00,30.2,27.6,29.98,NW,324,0.0,0.0,90,0.00,,SKC,0.00,VWS V14.01,2013-02-24 09:16:00,
2013-02-24 03:21:00,30.2,27.6,29.98,NW,323,1.0,2.0,90,0.00,,SKC,0.00,VWS V14.01,2013-02-24 09:21:00,
2013-02-24 03:26:00,30.2,27.6,29.98,NW,323,0.0,2.0,90,0.00,,SKC,0.00,VWS V14.01,2013-02-24 09:26:00,
2013-02-24 03:31:00,30.2,27.6,29.99,NW,323,0.0,2.0,90,0.00,,SKC,0.00,VWS V14.01,2013-02-24 09:31:00,
2013-02-24 03:37:00,30.1,27.5,29.99,NW,323,0.0,0.0,90,0.00,,SKC,0.00,VWS V14.01,2013-02-24 09:37:00,
2013-02-24 03:42:00,30.1,27.5,29.99,NW,323,0.0,1.0,90,0.00,,SKC,0.00,VWS V14.01,2013-02-24 09:42:00,
2013-02-24 03:47:00,30.2,27.9,29.99,NW,324,0.0,1.0,91,0.00,,SKC,0.00,VWS V14.01,2013-02-24 09:47:00,
2013-02-24 03:52:00,30.5,28.2,29.98,NW,324,3.0,3.0,91,0.00,,SKC,0.00,VWS V14.01,2013-02-24 09:52:00,
2013-02-24 03:57:00,30.8,28.5,29.99,NW,324,0.0,3.0,91,0.00,,SKC,0.00,VWS V14.01,2013-02-24 09:57:00,
2013-02-24 04:02:00,31.0,28.4,29.99,NW,323,0.0,3.0,90,0.00,,SKC,0.00,VWS V14.01,2013-02-24 10:02:00,
2013-02-24 04:07:00,31.1,28.5,29.99,NW,323,0.0,0.0,90,0.00,,SKC,0.00,VWS V14.01,2013-02-24 10:07:00,
2013-02-24 04:12:00,31.0,28.1,29.99,NW,324,0.0,0.0,89,0.00,,SKC,0.00,VWS V14.01,2013-02-24 10:12:00,
2013-02-24 04:17:00,30.9,28.0,29.99,NW,324,1.0,2.0,89,0.00,,SKC,0.00,VWS V14.01,2013-02-24 10:17:00,
2013-02-24 04:22:00,30.8,28.0,29.99,NW,324,1.0,2.0,89,0.00,,SKC,0.00,VWS V14.01,2013-02-24 10:22:00,
2013-02-24 04:27:00,30.6,27.8,29.99,NW,324,2.0,2.0,89,0.00,,SKC,0.00,VWS V14.01,2013-02-24 10:27:00,
2013-02-24 04:32:00,30.4,27.5,29.99,NW,323,0.0,0.0,89,0.00,,SKC,0.00,VWS V14.01,2013-02-24 10:32:00,
2013-02-24 04:38:00,30.2,27.4,29.98,NW,324,1.0,2.0,89,0.00,,SKC,0.00,VWS V14.01,2013-02-24 10:38:00,
2013-02-24 04:43:00,30.1,27.3,29.98,NW,323,2.0,3.0,89,0.00,,SKC,0.00,VWS V14.01,2013-02-24 10:43:00,
2013-02-24 04:48:00,30.2,27.6,29.98,NW,324,0.0,3.0,90,0.00,,SKC,0.00,VWS V14.01,2013-02-24 10:48:00,
2013-02-24 04:53:00,30.4,27.8,29.99,NW,324,1.0,3.0,90,0.00,,SKC,0.00,VWS V14.01,2013-02-24 10:53:00,
2013-02-24 04:58:00,30.7,28.1,29.98,NW,324,1.0,3.0,90,0.00,,SKC,0.00,VWS V14.01,2013-02-24 10:58:00,
2013-02-24 05:03:00,30.9,28.0,29.99,NW,324,1.0,2.0,89,0.00,,SKC,0.00,VWS V14.01,2013-02-24 11:03:00,
2013-02-24 05:08:00,31.1,28.2,29.99,NW,324,2.0,3.0,89,0.00,,SKC,0.00,VWS V14.01,2013-02-24 11:08:00,
2013-02-24 05:13:00,31.3,28.4,29.99,NW,324,0.0,3.0,89,0.00,,SKC,0.00,VWS V14.01,2013-02-24 11:13:00,
2013-02-24 05:18:00,31.4,28.5,30.00,NW,323,0.0,3.0,89,0.00,,SKC,0.00,VWS V14.01,2013-02-24 11:18:00,
2013-02-24 05:23:00,31.4,28.3,30.00,NW,324,0.0,3.0,88,0.00,,SKC,0.00,VWS V14.01,2013-02-24 11:23:00,
2013-02-24 05:29:00,31.4,28.3,30.00,NW,324,0.0,3.0,88,0.00,,SKC,0.00,VWS V14.01,2013-02-24 11:29:00,
2013-02-24 05:34:00,31.5,28.4,30.01,NW,324,0.0,0.0,88,0.00,,SKC,0.00,VWS V14.01,2013-02-24 11:34:00,
2013-02-24 05:39:00,31.5,28.4,30.01,NW,324,0.0,0.0,88,0.00,,SKC,0.00,VWS V14.01,2013-02-24 11:39:00,
2013-02-24 05:44:00,31.4,28.3,30.01,NW,324,0.0,0.0,88,0.00,,SKC,0.00,VWS V14.01,2013-02-24 11:44:00,
2013-02-24 05:49:00,31.3,28.2,30.01,NW,323,0.0,0.0,88,0.00,,SKC,0.00,VWS V14.01,2013-02-24 11:49:00,
2013-02-24 05:54:00,31.3,27.9,30.01,NW,323,0.0,0.0,87,0.00,,SKC,0.00,VWS V14.01,2013-02-24 11:54:00,
2013-02-24 05:59:00,31.2,27.8,30.02,NW,324,0.0,0.0,87,0.00,,SKC,0.00,VWS V14.01,2013-02-24 11:59:00,
2013-02-24 06:04:00,31.2,27.8,30.02,NW,324,0.0,0.0,87,0.00,,SKC,0.00,VWS V14.01,2013-02-24 12:04:00,
2013-02-24 06:09:00,31.2,27.8,30.03,NW,324,0.0,0.0,87,0.00,,SKC,0.00,VWS V14.01,2013-02-24 12:09:00,
2013-02-24 06:14:00,31.1,27.7,30.03,NW,323,0.0,0.0,87,0.00,,SKC,0.00,VWS V14.01,2013-02-24 12:14:00,
2013-02-24 06:20:00,30.8,27.4,30.03,NW,323,1.0,2.0,87,0.00,,SKC,0.00,VWS V14.01,2013-02-24 12:20:00,
2013-02-24 06:25:00,30.6,27.5,30.04,NW,324,2.0,2.0,88,0.00,,SKC,0.00,VWS V14.01,2013-02-24 12:25:00,
2013-02-24 06:30:00,30.3,27.2,30.04,NW,323,1.0,2.0,88,0.00,,SKC,0.00,VWS V14.01,2013-02-24 12:30:00,
2013-02-24 06:35:00,30.2,27.1,30.04,NW,323,0.0,0.0,88,0.00,,SKC,0.00,VWS V14.01,2013-02-24 12:35:00,
2013-02-24 06:40:00,29.9,26.8,30.04,NW,324,0.0,0.0,88,0.00,,SKC,0.00,VWS V14.01,2013-02-24 12:40:00,
2013-02-24 06:46:00,29.7,26.6,30.05,NW,323,0.0,0.0,88,0.00,,SKC,0.00,VWS V14.01,2013-02-24 12:46:00,
2013-02-24 06:51:00,29.6,26.8,30.05,NW,323,0.0,0.0,89,0.00,,SKC,0.00,VWS V14.01,2013-02-24 12:51:00,
2013-02-24 06:56:00,29.7,26.9,30.05,NW,323,0.0,0.0,89,0.00,,SKC,0.00,VWS V14.01,2013-02-24 12:56:00,
2013-02-24 07:01:00,30.0,27.4,30.05,NW,324,0.0,0.0,90,0.00,,SKC,0.00,VWS V14.01,2013-02-24 13:01:00,
2013-02-24 07:06:00,30.8,28.2,30.05,NW,324,0.0,0.0,90,0.00,,SKC,0.00,VWS V14.01,2013-02-24 13:06:00,
2013-02-24 07:11:00,31.8,29.2,30.05,NW,324,0.0,0.0,90,0.00,,SKC,0.00,VWS V14.01,2013-02-24 13:11:00,
2013-02-24 07:16:00,32.1,29.2,30.05,NW,324,1.0,2.0,89,0.00,,SKC,0.00,VWS V14.01,2013-02-24 13:16:00,
2013-02-24 07:21:00,32.2,29.0,30.05,NW,324,0.0,2.0,88,0.00,,SKC,0.00,VWS V14.01,2013-02-24 13:21:00,
2013-02-24 07:26:00,32.6,29.5,30.05,NW,323,0.0,2.0,88,0.00,,SKC,0.00,VWS V14.01,2013-02-24 13:26:00,
2013-02-24 07:31:00,33.1,29.9,30.05,NW,324,0.0,2.0,88,0.00,,SKC,0.00,VWS V14.01,2013-02-24 13:31:00,
2013-02-24 07:36:00,33.6,30.1,30.06,NW,324,0.0,1.0,87,0.00,,SKC,0.00,VWS V14.01,2013-02-24 13:36:00,
2013-02-24 07:42:00,34.1,30.4,30.06,NW,323,0.0,1.0,86,0.00,,SKC,0.00,VWS V14.01,2013-02-24 13:42:00,
2013-02-24 07:47:00,34.4,30.1,30.06,NW,323,3.0,3.0,84,0.00,,SKC,0.00,VWS V14.01,2013-02-24 13:47:00,
2013-02-24 07:52:00,34.4,30.1,30.06,NW,324,2.0,4.0,84,0.00,,SKC,0.00,VWS V14.01,2013-02-24 13:52:00,
2013-02-24 07:57:00,34.5,30.2,30.06,NNW,345,1.0,5.0,84,0.00,,SKC,0.00,VWS V14.01,2013-02-24 13:57:00,
2013-02-24 08:02:00,34.8,30.2,30.06,NNE,19,3.0,5.0,83,0.00,,SKC,0.00,VWS V14.01,2013-02-24 14:02:00,
2013-02-24 08:07:00,35.1,30.5,30.07,NNE,19,2.0,5.0,83,0.00,,SKC,0.00,VWS V14.01,2013-02-24 14:07:00,
2013-02-24 08:12:00,35.5,30.6,30.07,NNE,20,3.0,5.0,82,0.00,,SKC,0.00,VWS V14.01,2013-02-24 14:12:00,
2013-02-24 08:17:00,35.9,30.6,30.07,NNE,19,3.0,5.0,81,0.00,,SKC,0.00,VWS V14.01,2013-02-24 14:17:00,
2013-02-24 08:22:00,36.2,30.9,30.07,NNE,19,2.0,5.0,81,0.00,,SKC,0.00,VWS V14.01,2013-02-24 14:22:00,
2013-02-24 08:27:00,36.7,30.8,30.07,NNE,15,3.0,6.0,79,0.00,,SKC,0.00,VWS V14.01,2013-02-24 14:27:00,
2013-02-24 08:32:00,37.1,30.9,30.07,NNE,26,5.0,6.0,78,0.00,,SKC,0.00,VWS V14.01,2013-02-24 14:32:00,
2013-02-24 08:37:00,37.5,31.3,30.07,NNE,28,5.0,6.0,78,0.00,,SKC,0.00,VWS V14.01,2013-02-24 14:37:00,
2013-02-24 08:42:00,38.1,31.5,30.07,ENE,71,1.0,6.0,77,0.00,,SKC,0.00,VWS V14.01,2013-02-24 14:42:00,
2013-02-24 08:47:00,38.6,31.0,30.07,NE,49,4.0,7.0,74,0.00,,SKC,0.00,VWS V14.01,2013-02-24 14:47:00,
2013-02-24 08:52:00,38.9,31.0,30.07,ENE,73,6.0,7.0,73,0.00,,SKC,0.00,VWS V14.01,2013-02-24 14:52:00,
2013-02-24 08:57:00,39.3,31.4,30.06,NE,55,5.0,10.0,73,0.00,,SKC,0.00,VWS V14.01,2013-02-24 14:57:00,
2013-02-24 09:02:00,39.7,31.4,30.06,East,86,7.0,7.0,72,0.00,,SKC,0.00,VWS V14.01,2013-02-24 15:02:00,
2013-02-24 09:08:00,39.9,31.6,30.06,ENE,76,4.0,11.0,72,0.00,,SKC,0.00,VWS V14.01,2013-02-24 15:08:00,
2013-02-24 09:13:00,40.2,31.6,30.05,ENE,77,5.0,11.0,71,0.00,,SKC,0.00,VWS V14.01,2013-02-24 15:13:00,
2013-02-24 09:18:00,40.5,31.1,30.05,ENE,67,7.0,11.0,69,0.00,,SKC,0.00,VWS V14.01,2013-02-24 15:18:00,
2013-02-24 09:23:00,40.7,31.0,30.05,ENE,71,11.0,12.0,68,0.00,,SKC,0.00,VWS V14.01,2013-02-24 15:23:00,
2013-02-24 09:28:00,41.2,31.5,30.05,NE,43,3.0,12.0,68,0.00,,SKC,0.00,VWS V14.01,2013-02-24 15:28:00,
2013-02-24 09:33:00,41.5,31.4,30.05,East,82,10.0,10.0,67,0.00,,SKC,0.00,VWS V14.01,2013-02-24 15:33:00,
2013-02-24 09:38:00,41.9,31.4,30.05,ENE,76,6.0,11.0,66,0.00,,SKC,0.00,VWS V14.01,2013-02-24 15:38:00,
2013-02-24 09:43:00,42.0,31.1,30.05,East,97,11.0,13.0,65,0.00,,SKC,0.00,VWS V14.01,2013-02-24 15:43:00,
2013-02-24 09:48:00,42.2,31.3,30.05,East,86,7.0,13.0,65,0.00,,SKC,0.00,VWS V14.01,2013-02-24 15:48:00,
2013-02-24 09:53:00,42.6,31.3,30.05,ENE,64,5.0,13.0,64,0.00,,SKC,0.00,VWS V14.01,2013-02-24 15:53:00,
2013-02-24 09:58:00,42.8,31.5,30.05,NE,41,5.0,13.0,64,0.00,,SKC,0.00,VWS V14.01,2013-02-24 15:58:00,
2013-02-24 10:03:00,43.1,31.4,30.05,NE,38,6.0,12.0,63,0.00,,SKC,0.00,VWS V14.01,2013-02-24 16:03:00,
2013-02-24 10:08:00,43.2,31.5,30.05,NNE,32,7.0,12.0,63,0.00,,SKC,0.00,VWS V14.01,2013-02-24 16:08:00,
2013-02-24 10:13:00,43.3,31.2,30.05,NNE,29,6.0,12.0,62,0.00,,SKC,0.00,VWS V14.01,2013-02-24 16:13:00,
2013-02-24 10:18:00,44.0,32.6,30.05,ENE,64,5.0,12.0,64,0.00,,SKC,0.00,VWS V14.01,2013-02-24 16:18:00,
2013-02-24 10:23:00,44.2,31.6,30.05,ENE,72,6.0,12.0,61,0.00,,SKC,0.00,VWS V14.01,2013-02-24 16:23:00,
2013-02-24 10:28:00,44.4,31.8,30.05,NE,37,10.0,12.0,61,0.00,,SKC,0.00,VWS V14.01,2013-02-24 16:28:00,
2013-02-24 10:33:00,44.4,31.4,30.06,ENE,65,5.0,11.0,60,0.00,,SKC,0.00,VWS V14.01,2013-02-24 16:33:00,
2013-02-24 10:38:00,44.5,31.5,30.06,ENE,61,4.0,13.0,60,0.00,,SKC,0.00,VWS V14.01,2013-02-24 16:38:00,
2013-02-24 10:44:00,44.8,31.8,30.06,ENE,57,6.0,13.0,60,0.00,,SKC,0.00,VWS V14.01,2013-02-24 16:44:00,
2013-02-24 10:49:00,45.0,31.5,30.06,ENE,69,5.0,13.0,59,0.00,,SKC,0.00,VWS V14.01,2013-02-24 16:49:00,
2013-02-24 10:54:00,45.3,31.4,30.06,ENE,63,3.0,13.0,58,0.00,,SKC,0.00,VWS V14.01,2013-02-24 16:54:00,
2013-02-24 10:59:00,45.4,31.5,30.06,NNE,28,5.0,13.0,58,0.00,,SKC,0.00,VWS V14.01,2013-02-24 16:59:00,
2013-02-24 11:04:00,45.6,31.3,30.06,East,86,2.0,11.0,57,0.00,,SKC,0.00,VWS V14.01,2013-02-24 17:04:00,
2013-02-24 11:09:00,45.8,31.0,30.05,ENE,70,6.0,11.0,56,0.00,,SKC,0.00,VWS V14.01,2013-02-24 17:09:00,
2013-02-24 11:14:00,45.9,31.5,30.05,ENE,72,4.0,11.0,57,0.00,,SKC,0.00,VWS V14.01,2013-02-24 17:14:00,
2013-02-24 11:19:00,46.4,32.4,30.05,ENE,69,6.0,11.0,58,0.00,,SKC,0.00,VWS V14.01,2013-02-24 17:19:00,
2013-02-24 11:24:00,46.5,31.7,30.05,ENE,73,7.0,11.0,56,0.00,,SKC,0.00,VWS V14.01,2013-02-24 17:24:00,
2013-02-24 11:29:00,46.6,32.2,30.05,ENE,75,3.0,11.0,57,0.00,,SKC,0.00,VWS V14.01,2013-02-24 17:29:00,
2013-02-24 11:34:00,47.0,32.1,30.05,ENE,75,4.0,7.0,56,0.00,,SKC,0.00,VWS V14.01,2013-02-24 17:34:00,
2013-02-24 11:39:00,47.3,32.0,30.05,NE,42,5.0,13.0,55,0.00,,SKC,0.00,VWS V14.01,2013-02-24 17:39:00,
2013-02-24 11:44:00,47.5,31.7,30.04,ENE,65,2.0,13.0,54,0.00,,SKC,0.00,VWS V14.01,2013-02-24 17:44:00,
2013-02-24 11:49:00,48.1,32.3,30.04,NE,36,5.0,13.0,54,0.00,,SKC,0.00,VWS V14.01,2013-02-24 17:49:00,
2013-02-24 11:54:00,48.2,32.3,30.04,East,86,6.0,13.0,54,0.00,,SKC,0.00,VWS V14.01,2013-02-24 17:54:00,
2013-02-24 11:59:00,48.1,31.8,30.03,East,84,4.0,13.0,53,0.00,,SKC,0.00,VWS V14.01,2013-02-24 17:59:00,
2013-02-24 12:04:00,48.2,32.3,30.03,East,87,1.0,6.0,54,0.00,,SKC,0.00,VWS V14.01,2013-02-24 18:04:00,
2013-02-24 12:10:00,48.7,32.8,30.02,North,9,7.0,10.0,54,0.00,,SKC,0.00,VWS V14.01,2013-02-24 18:10:00,
2013-02-24 12:15:00,49.0,32.6,30.02,ENE,76,8.0,10.0,53,0.00,,SKC,0.00,VWS V14.01,2013-02-24 18:15:00,
2013-02-24 12:20:00,48.9,33.0,30.02,ENE,71,4.0,10.0,54,0.00,,SKC,0.00,VWS V14.01,2013-02-24 18:20:00,
2013-02-24 12:25:00,49.4,33.0,30.02,NNE,17,1.0,10.0,53,0.00,,SKC,0.00,VWS V14.01,2013-02-24 18:25:00,
2013-02-24 12:30:00,49.6,32.2,30.02,East,83,0.0,10.0,51,0.00,,SKC,0.00,VWS V14.01,2013-02-24 18:30:00,
2013-02-24 12:35:00,50.0,33.1,30.01,ENE,60,6.0,9.0,52,0.00,,SKC,0.00,VWS V14.01,2013-02-24 18:35:00,
2013-02-24 12:40:00,50.4,33.0,30.01,ENE,57,4.0,11.0,51,0.00,,SKC,0.00,VWS V14.01,2013-02-24 18:40:00,
2013-02-24 12:45:00,50.5,33.1,30.01,NE,38,3.0,11.0,51,0.00,,SKC,0.00,VWS V14.01,2013-02-24 18:45:00,
2013-02-24 12:50:00,50.7,32.8,30.01,ENE,74,1.0,11.0,50,0.00,,SKC,0.00,VWS V14.01,2013-02-24 18:50:00,
2013-02-24 12:55:00,50.9,32.4,30.00,ENE,73,4.0,11.0,49,0.00,,SKC,0.00,VWS V14.01,2013-02-24 18:55:00,
2013-02-24 13:00:00,50.9,32.9,30.00,NNE,16,1.0,11.0,50,0.00,,SKC,0.00,VWS V14.01,2013-02-24 19:00:00,
2013-02-24 13:05:00,51.1,33.1,30.00,North,360,5.0,11.0,50,0.00,,SKC,0.00,VWS V14.01,2013-02-24 19:05:00,
2013-02-24 13:10:00,51.2,34.2,30.00,NE,36,0.0,11.0,52,0.00,,SKC,0.00,VWS V14.01,2013-02-24 19:10:00,
2013-02-24 13:15:00,51.7,33.2,30.00,NE,45,3.0,11.0,49,0.00,,SKC,0.00,VWS V14.01,2013-02-24 19:15:00,
2013-02-24 13:21:00,51.8,33.3,29.99,NNE,23,3.0,11.0,49,0.00,,SKC,0.00,VWS V14.01,2013-02-24 19:21:00,
2013-02-24 13:26:00,52.1,34.0,29.99,ENE,74,5.0,11.0,50,0.00,,SKC,0.00,VWS V14.01,2013-02-24 19:26:00,
2013-02-24 13:31:00,51.9,32.8,29.99,ENE,60,4.0,11.0,48,0.00,,SKC,0.00,VWS V14.01,2013-02-24 19:31:00,
2013-02-24 13:36:00,52.1,33.0,29.99,NE,40,6.0,11.0,48,0.00,,SKC,0.00,VWS V14.01,2013-02-24 19:36:00,
2013-02-24 13:41:00,52.1,33.5,29.98,ENE,73,2.0,11.0,49,0.00,,SKC,0.00,VWS V14.01,2013-02-24 19:41:00,
2013-02-24 13:46:00,52.4,33.8,29.98,North,9,3.0,11.0,49,0.00,,SKC,0.00,VWS V14.01,2013-02-24 19:46:00,
2013-02-24 13:51:00,52.5,33.4,29.98,ENE,64,3.0,11.0,48,0.00,,SKC,0.00,VWS V14.01,2013-02-24 19:51:00,
2013-02-24 13:56:00,52.6,34.0,29.98,NE,52,3.0,11.0,49,0.00,,SKC,0.00,VWS V14.01,2013-02-24 19:56:00,
2013-02-24 14:01:00,53.0,33.8,29.98,ENE,67,5.0,12.0,48,0.00,,SKC,0.00,VWS V14.01,2013-02-24 20:01:00,
2013-02-24 14:06:00,53.2,34.5,29.98,NNE,25,6.0,11.0,49,0.00,,SKC,0.00,VWS V14.01,2013-02-24 20:06:00,
2013-02-24 14:11:00,53.1,34.0,29.97,NNE,30,7.0,13.0,48,0.00,,SKC,0.00,VWS V14.01,2013-02-24 20:11:00,
2013-02-24 14:16:00,53.2,34.0,29.97,ENE,57,5.0,13.0,48,0.00,,SKC,0.00,VWS V14.01,2013-02-24 20:16:00,
2013-02-24 14:21:00,53.3,34.7,29.97,ENE,59,1.0,13.0,49,0.00,,SKC,0.00,VWS V14.01,2013-02-24 20:21:00,
2013-02-24 14:26:00,53.4,34.2,29.97,NNE,27,3.0,13.0,48,0.00,,SKC,0.00,VWS V14.01,2013-02-24 20:26:00,
2013-02-24 14:31:00,53.7,35.5,29.97,ENE,68,6.0,15.0,50,0.00,,SKC,0.00,VWS V14.01,2013-02-24 20:31:00,
2013-02-24 14:36:00,53.9,34.2,29.97,East,82,6.0,10.0,47,0.00,,SKC,0.00,VWS V14.01,2013-02-24 20:36:00,
2013-02-24 14:41:00,54.0,34.2,29.96,ENE,58,6.0,11.0,47,0.00,,SKC,0.00,VWS V14.01,2013-02-24 20:41:00,
2013-02-24 14:46:00,54.2,33.9,29.96,North,5,6.0,11.0,46,0.00,,SKC,0.00,VWS V14.01,2013-02-24 20:46:00,
2013-02-24 14:51:00,54.4,34.6,29.95,NNW,346,5.0,11.0,47,0.00,,SKC,0.00,VWS V14.01,2013-02-24 20:51:00,
2013-02-24 14:56:00,54.6,34.2,29.95,ENE,58,1.0,11.0,46,0.00,,SKC,0.00,VWS V14.01,2013-02-24 20:56:00,
2013-02-24 15:02:00,54.6,34.2,29.95,East,80,1.0,11.0,46,0.00,,SKC,0.00,VWS V14.01,2013-02-24 21:02:00,
2013-02-24 15:07:00,54.7,34.9,29.95,NE,56,5.0,9.0,47,0.00,,SKC,0.00,VWS V14.01,2013-02-24 21:07:00,
2013-02-24 15:12:00,54.8,34.4,29.95,NE,36,6.0,9.0,46,0.00,,SKC,0.00,VWS V14.01,2013-02-24 21:12:00,
2013-02-24 15:17:00,54.9,34.5,29.95,ENE,67,5.0,9.0,46,0.00,,SKC,0.00,VWS V14.01,2013-02-24 21:17:00,
2013-02-24 15:22:00,55.1,34.2,29.95,NNE,26,5.0,11.0,45,0.00,,SKC,0.00,VWS V14.01,2013-02-24 21:22:00,
2013-02-24 15:27:00,55.1,34.2,29.95,ENE,57,4.0,13.0,45,0.00,,SKC,0.00,VWS V14.01,2013-02-24 21:27:00,
2013-02-24 15:32:00,55.2,34.8,29.95,ENE,74,2.0,13.0,46,0.00,,SKC,0.00,VWS V14.01,2013-02-24 21:32:00,
2013-02-24 15:37:00,55.4,35.0,29.94,East,82,7.0,10.0,46,0.00,,SKC,0.00,VWS V14.01,2013-02-24 21:37:00,
2013-02-24 15:42:00,55.4,33.9,29.94,ENE,78,8.0,11.0,44,0.00,,SKC,0.00,VWS V14.01,2013-02-24 21:42:00,
2013-02-24 15:47:00,55.3,34.3,29.94,ENE,74,7.0,11.0,45,0.00,,SKC,0.00,VWS V14.01,2013-02-24 21:47:00,
2013-02-24 15:52:00,55.4,34.4,29.94,East,79,5.0,13.0,45,0.00,,SKC,0.00,VWS V14.01,2013-02-24 21:52:00,
2013-02-24 15:58:00,55.5,35.1,29.94,East,82,3.0,13.0,46,0.00,,SKC,0.00,VWS V14.01,2013-02-24 21:58:00,
2013-02-24 16:03:00,55.5,34.0,29.94,NE,55,4.0,7.0,44,0.00,,SKC,0.00,VWS V14.01,2013-02-24 22:03:00,
2013-02-24 16:08:00,55.6,35.2,29.94,ENE,76,7.0,11.0,46,0.00,,SKC,0.00,VWS V14.01,2013-02-24 22:08:00,
2013-02-24 16:13:00,55.7,34.7,29.93,NE,50,5.0,12.0,45,0.00,,SKC,0.00,VWS V14.01,2013-02-24 22:13:00,
2013-02-24 16:18:00,55.7,35.3,29.93,NE,56,5.0,12.0,46,0.00,,SKC,0.00,VWS V14.01,2013-02-24 22:18:00,
2013-02-24 16:23:00,55.8,35.3,29.93,ENE,69,4.0,12.0,46,0.00,,SKC,0.00,VWS V14.01,2013-02-24 22:23:00,
2013-02-24 16:28:00,55.9,34.9,29.93,East,86,6.0,12.0,45,0.00,,SKC,0.00,VWS V14.01,2013-02-24 22:28:00,
2013-02-24 16:33:00,55.9,34.9,29.93,ENE,76,4.0,7.0,45,0.00,,SKC,0.00,VWS V14.01,2013-02-24 22:33:00,
2013-02-24 16:38:00,55.9,34.9,29.92,NE,37,9.0,9.0,45,0.00,,SKC,0.00,VWS V14.01,2013-02-24 22:38:00,
2013-02-24 16:43:00,56.0,35.0,29.92,ENE,69,5.0,12.0,45,0.00,,SKC,0.00,VWS V14.01,2013-02-24 22:43:00,
2013-02-24 16:48:00,55.9,34.9,29.92,NE,48,6.0,12.0,45,0.00,,SKC,0.00,VWS V14.01,2013-02-24 22:48:00,
2013-02-24 16:53:00,55.8,34.8,29.92,ENE,78,4.0,12.0,45,0.00,,SKC,0.00,VWS V14.01,2013-02-24 22:53:00,
2013-02-24 16:59:00,55.7,34.7,29.92,ENE,70,3.0,12.0,45,0.00,,SKC,0.00,VWS V14.01,2013-02-24 22:59:00,
2013-02-24 17:04:00,55.8,35.3,29.92,NNE,24,6.0,6.0,46,0.00,,SKC,0.00,VWS V14.01,2013-02-24 23:04:00,
2013-02-24 17:09:00,55.8,34.8,29.92,NE,38,6.0,7.0,45,0.00,,SKC,0.00,VWS V14.01,2013-02-24 23:09:00,
2013-02-24 17:14:00,55.8,35.3,29.92,ENE,60,2.0,10.0,46,0.00,,SKC,0.00,VWS V14.01,2013-02-24 23:14:00,
2013-02-24 17:19:00,55.7,35.3,29.92,NE,34,3.0,10.0,46,0.00,,SKC,0.00,VWS V14.01,2013-02-24 23:19:00,
2013-02-24 17:24:00,55.6,35.2,29.92,ENE,65,3.0,10.0,46,0.00,,SKC,0.00,VWS V14.01,2013-02-24 23:24:00,
2013-02-24 17:29:00,55.5,35.1,29.92,NE,45,4.0,10.0,46,0.00,,SKC,0.00,VWS V14.01,2013-02-24 23:29:00,
2013-02-24 17:34:00,55.4,35.0,29.92,NNE,17,2.0,6.0,46,0.00,,SKC,0.00,VWS V14.01,2013-02-24 23:34:00,
2013-02-24 17:39:00,55.1,34.7,29.92,NNE,17,3.0,6.0,46,0.00,,SKC,0.00,VWS V14.01,2013-02-24 23:39:00,
2013-02-24 17:44:00,54.9,34.5,29.93,NNE,17,3.0,6.0,46,0.00,,SKC,0.00,VWS V14.01,2013-02-24 23:44:00,
2013-02-24 17:49:00,54.7,35.4,29.93,NNE,19,3.0,6.0,48,0.00,,SKC,0.00,VWS V14.01,2013-02-24 23:49:00,
2013-02-24 17:55:00,54.4,34.6,29.93,NNE,18,2.0,6.0,47,0.00,,SKC,0.00,VWS V14.01,2013-02-24 23:55:00,
2013-02-24 18:00:00,54.1,34.3,29.93,NNE,18,3.0,6.0,47,0.00,,SKC,0.00,VWS V14.01,2013-02-25 00:00:00,
2013-02-24 18:05:00,53.9,34.2,29.93,NNE,18,2.0,4.0,47,0.00,,SKC,0.00,VWS V14.01,2013-02-25 00:05:00,
2013-02-24 18:10:00,53.7,35.0,29.93,NNE,18,3.0,4.0,49,0.00,,SKC,0.00,VWS V14.01,2013-02-25 00:10:00,
2013-02-24 18:15:00,53.4,34.7,29.93,NNE,18,4.0,4.0,49,0.00,,SKC,0.00,VWS V14.01,2013-02-25 00:15:00,
2013-02-24 18:20:00,53.2,34.5,29.93,NNE,18,1.0,4.0,49,0.00,,SKC,0.00,VWS V14.01,2013-02-25 00:20:00,
2013-02-24 18:25:00,53.1,34.5,29.93,NNE,18,1.0,4.0,49,0.00,,SKC,0.00,VWS V14.01,2013-02-25 00:25:00,
2013-02-24 18:30:00,52.8,34.7,29.93,NNE,18,1.0,4.0,50,0.00,,SKC,0.00,VWS V14.01,2013-02-25 00:30:00,
2013-02-24 18:35:00,52.6,34.0,29.93,NNE,18,1.0,3.0,49,0.00,,SKC,0.00,VWS V14.01,2013-02-25 00:35:00,
2013-02-24 18:40:00,52.3,34.2,29.93,NNE,18,0.0,3.0,50,0.00,,SKC,0.00,VWS V14.01,2013-02-25 00:40:00,
2013-02-24 18:45:00,52.0,34.0,29.94,NNE,18,2.0,3.0,50,0.00,,SKC,0.00,VWS V14.01,2013-02-25 00:45:00,
2013-02-24 18:50:00,51.7,34.2,29.93,NNE,18,2.0,4.0,51,0.00,,SKC,0.00,VWS V14.01,2013-02-25 00:50:00,
2013-02-24 18:55:00,51.3,34.3,29.93,NNE,18,2.0,4.0,52,0.00,,SKC,0.00,VWS V14.01,2013-02-25 00:55:00,
2013-02-24 19:01:00,50.9,34.9,29.93,NNE,18,0.0,4.0,54,0.00,,SKC,0.00,VWS V14.01,2013-02-25 01:01:00,
2013-02-24 19:06:00,50.5,34.0,29.92,NNE,18,3.0,4.0,53,0.00,,SKC,0.00,VWS V14.01,2013-02-25 01:06:00,
2013-02-24 19:11:00,50.4,33.9,29.92,NNE,18,2.0,4.0,53,0.00,,SKC,0.00,VWS V14.01,2013-02-25 01:11:00,
2013-02-24 19:16:00,50.3,33.8,29.93,NNE,18,0.0,4.0,53,0.00,,SKC,0.00,VWS V14.01,2013-02-25 01:16:00,
2013-02-24 19:21:00,50.2,33.7,29.93,NNE,18,3.0,4.0,53,0.00,,SKC,0.00,VWS V14.01,2013-02-25 01:21:00,
2013-02-24 19:26:00,50.1,33.7,29.93,NNE,18,1.0,4.0,53,0.00,,SKC,0.00,VWS V14.01,2013-02-25 01:26:00,
2013-02-24 19:31:00,49.9,33.5,29.93,NNE,18,2.0,4.0,53,0.00,,SKC,0.00,VWS V14.01,2013-02-25 01:31:00,
2013-02-24 19:36:00,49.7,33.3,29.92,NNE,18,2.0,3.0,53,0.00,,SKC,0.00,VWS V14.01,2013-02-25 01:36:00,
2013-02-24 19:41:00,49.5,33.1,29.92,NNE,18,1.0,3.0,53,0.00,,SKC,0.00,VWS V14.01,2013-02-25 01:41:00,
2013-02-24 19:46:00,49.4,33.0,29.92,NNE,18,0.0,3.0,53,0.00,,SKC,0.00,VWS V14.01,2013-02-25 01:46:00,
2013-02-24 19:52:00,49.2,32.8,29.92,NNE,18,0.0,3.0,53,0.00,,SKC,0.00,VWS V14.01,2013-02-25 01:52:00,
2013-02-24 19:57:00,49.0,33.1,29.92,NNE,18,2.0,3.0,54,0.00,,SKC,0.00,VWS V14.01,2013-02-25 01:57:00,
2013-02-24 20:02:00,48.9,32.5,29.92,NNE,18,1.0,3.0,53,0.00,,SKC,0.00,VWS V14.01,2013-02-25 02:02:00,
2013-02-24 20:07:00,48.8,32.9,29.92,NNE,18,1.0,3.0,54,0.00,,SKC,0.00,VWS V14.01,2013-02-25 02:07:00,
2013-02-24 20:12:00,48.7,32.8,29.92,NNE,18,2.0,3.0,54,0.00,,SKC,0.00,VWS V14.01,2013-02-25 02:12:00,
2013-02-24 20:17:00,48.6,32.7,29.92,NNE,18,3.0,4.0,54,0.00,,SKC,0.00,VWS V14.01,2013-02-25 02:17:00,
2013-02-24 20:22:00,48.6,32.7,29.91,NNE,19,3.0,5.0,54,0.00,,SKC,0.00,VWS V14.01,2013-02-25 02:22:00,
2013-02-24 20:27:00,48.6,32.3,29.91,NNE,21,3.0,5.0,53,0.00,,SKC,0.00,VWS V14.01,2013-02-25 02:27:00,
2013-02-24 20:32:00,48.7,32.8,29.91,NNE,21,3.0,5.0,54,0.00,,SKC,0.00,VWS V14.01,2013-02-25 02:32:00,
2013-02-24 20:37:00,48.7,32.3,29.91,NNE,21,2.0,5.0,53,0.00,,SKC,0.00,VWS V14.01,2013-02-25 02:37:00,
2013-02-24 20:42:00,48.6,32.3,29.91,NE,42,3.0,5.0,53,0.00,,SKC,0.00,VWS V14.01,2013-02-25 02:42:00,
2013-02-24 20:47:00,48.7,31.9,29.90,ENE,65,2.0,5.0,52,0.00,,SKC,0.00,VWS V14.01,2013-02-25 02:47:00,
2013-02-24 20:52:00,48.8,32.0,29.90,NE,36,1.0,7.0,52,0.00,,SKC,0.00,VWS V14.01,2013-02-25 02:52:00,
2013-02-24 20:58:00,48.8,32.0,29.90,NE,49,4.0,7.0,52,0.00,,SKC,0.00,VWS V14.01,2013-02-25 02:58:00,
2013-02-24 21:03:00,49.0,31.2,29.89,NE,46,2.0,4.0,50,0.00,,SKC,0.00,VWS V14.01,2013-02-25 03:03:00,
2013-02-24 21:08:00,49.1,31.3,29.89,NE,40,4.0,7.0,50,0.00,,SKC,0.00,VWS V14.01,2013-02-25 03:08:00,
2013-02-24 21:13:00,49.1,31.3,29.89,NNE,17,5.0,7.0,50,0.00,,SKC,0.00,VWS V14.01,2013-02-25 03:13:00,
2013-02-24 21:18:00,49.1,31.8,29.90,ENE,69,7.0,7.0,51,0.00,,SKC,0.00,VWS V14.01,2013-02-25 03:18:00,
2013-02-24 21:23:00,49.1,31.3,29.90,ENE,65,1.0,7.0,50,0.00,,SKC,0.00,VWS V14.01,2013-02-25 03:23:00,
2013-02-24 21:28:00,49.1,31.3,29.90,NNE,30,2.0,9.0,50,0.00,,SKC,0.00,VWS V14.01,2013-02-25 03:28:00,
2013-02-24 21:33:00,49.2,30.9,29.90,NE,53,3.0,5.0,49,0.00,,SKC,0.00,VWS V14.01,2013-02-25 03:33:00,
2013-02-24 21:38:00,49.2,30.9,29.89,ENE,61,3.0,7.0,49,0.00,,SKC,0.00,VWS V14.01,2013-02-25 03:38:00,
2013-02-24 21:44:00,49.2,30.4,29.89,NE,55,4.0,7.0,48,0.00,,SKC,0.00,VWS V14.01,2013-02-25 03:44:00,
2013-02-24 21:49:00,49.2,30.9,29.89,ENE,69,3.0,7.0,49,0.00,,SKC,0.00,VWS V14.01,2013-02-25 03:49:00,
2013-02-24 21:54:00,49.2,30.4,29.89,NE,42,5.0,7.0,48,0.00,,SKC,0.00,VWS V14.01,2013-02-25 03:54:00,
2013-02-24 21:59:00,49.1,30.8,29.89,NE,43,4.0,7.0,49,0.00,,SKC,0.00,VWS V14.01,2013-02-25 03:59:00,
2013-02-24 22:04:00,49.0,30.7,29.89,NE,38,4.0,4.0,49,0.00,,SKC,0.00,VWS V14.01,2013-02-25 04:04:00,
2013-02-24 22:09:00,48.9,30.6,29.89,NE,46,6.0,6.0,49,0.00,,SKC,0.00,VWS V14.01,2013-02-25 04:09:00,
2013-02-24 22:14:00,48.8,30.5,29.88,ENE,66,3.0,9.0,49,0.00,,SKC,0.00,VWS V14.01,2013-02-25 04:14:00,
2013-02-24 22:19:00,48.6,30.3,29.88,NE,52,4.0,9.0,49,0.00,,SKC,0.00,VWS V14.01,2013-02-25 04:19:00,
2013-02-24 22:24:00,48.4,30.1,29.88,NE,49,3.0,9.0,49,0.00,,SKC,0.00,VWS V14.01,2013-02-25 04:24:00,
2013-02-24 22:29:00,48.2,30.0,29.88,ENE,61,6.0,9.0,49,0.00,,SKC,0.00,VWS V14.01,2013-02-25 04:29:00,
2013-02-24 22:34:00,48.1,30.4,29.88,ENE,57,3.0,9.0,50,0.00,,SKC,0.00,VWS V14.01,2013-02-25 04:34:00,
2013-02-24 22:39:00,48.0,30.3,29.88,ENE,64,5.0,9.0,50,0.00,,SKC,0.00,VWS V14.01,2013-02-25 04:39:00,
2013-02-24 22:44:00,47.9,30.2,29.88,NE,51,2.0,9.0,50,0.00,,SKC,0.00,VWS V14.01,2013-02-25 04:44:00,
2013-02-24 22:50:00,47.9,30.2,29.87,ENE,61,6.0,9.0,50,0.00,,SKC,0.00,VWS V14.01,2013-02-25 04:50:00,
2013-02-24 22:55:00,47.8,30.6,29.87,NE,53,3.0,9.0,51,0.00,,SKC,0.00,VWS V14.01,2013-02-25 04:55:00,
2013-02-24 23:00:00,47.7,31.0,29.88,NE,48,4.0,9.0,52,0.00,,SKC,0.00,VWS V14.01,2013-02-25 05:00:00,
2013-02-24 23:06:00,47.5,30.8,29.88,ENE,57,3.0,6.0,52,0.00,,SKC,0.00,VWS V14.01,2013-02-25 05:06:00,
2013-02-24 23:11:00,47.4,30.7,29.88,NE,46,3.0,6.0,52,0.00,,SKC,0.00,VWS V14.01,2013-02-25 05:11:00,
2013-02-24 23:16:00,47.2,30.5,29.87,NE,40,3.0,7.0,52,0.00,,SKC,0.00,VWS V14.01,2013-02-25 05:16:00,
2013-02-24 23:21:00,46.9,30.7,29.88,NE,41,2.0,7.0,53,0.00,,SKC,0.00,VWS V14.01,2013-02-25 05:21:00,
2013-02-24 23:26:00,46.8,30.6,29.88,NE,42,3.0,7.0,53,0.00,,SKC,0.00,VWS V14.01,2013-02-25 05:26:00,
2013-02-24 23:31:00,46.7,30.5,29.88,NE,41,3.0,7.0,53,0.00,,SKC,0.00,VWS V14.01,2013-02-25 05:31:00,
2013-02-24 23:36:00,46.7,30.5,29.87,NE,44,4.0,5.0,53,0.00,,SKC,0.00,VWS V14.01,2013-02-25 05:36:00,
2013-02-24 23:41:00,46.7,31.0,29.87,NE,53,5.0,6.0,54,0.00,,SKC,0.00,VWS V14.01,2013-02-25 05:41:00,
2013-02-24 23:46:00,46.7,30.5,29.87,NE,51,3.0,6.0,53,0.00,,SKC,0.00,VWS V14.01,2013-02-25 05:46:00,
2013-02-24 23:51:00,46.7,30.5,29.88,ENE,57,2.0,6.0,53,0.00,,SKC,0.00,VWS V14.01,2013-02-25 05:51:00,
2013-02-24 23:56:00,46.7,30.5,29.88,NE,56,3.0,6.0,53,0.00,,SKC,0.00,VWS V14.01,2013-02-25 05:56:00,